createdAt,value
2019-03-23T00:00:34.989Z,88.64
2019-03-23T00:01:34.977Z,88.45
2019-03-23T00:02:34.972Z,88.17
2019-03-23T00:03:34.958Z,88.26
2019-03-23T00:04:34.952Z,88.26
2019-03-23T00:05:34.944Z,88.07
2019-03-23T00:06:34.934Z,88.35
2019-03-23T00:07:34.925Z,88.45
2019-03-23T00:08:34.926Z,88.82
2019-03-23T00:09:34.911Z,88.45
2019-03-23T00:10:34.649Z,88.82
2019-03-23T00:11:34.897Z,88.92
2019-03-23T00:12:34.891Z,89.3
2019-03-23T00:13:34.874Z,89.49
2019-03-23T00:14:34.871Z,89.39
2019-03-23T00:15:34.868Z,89.39
2019-03-23T00:16:34.856Z,89.39
2019-03-23T00:17:34.858Z,89.2
2019-03-23T00:18:34.853Z,89.49
2019-03-23T00:19:34.830Z,89.58
2019-03-23T00:20:34.822Z,89.49
2019-03-23T00:21:34.817Z,89.3
2019-03-23T00:22:34.831Z,89.49
2019-03-23T00:23:34.789Z,89.49
2019-03-23T00:24:34.796Z,89.3
2019-03-23T00:25:34.773Z,89.39
2019-03-23T00:26:34.763Z,89.49
2019-03-23T00:27:34.763Z,89.49
2019-03-23T00:28:34.746Z,89.58
2019-03-23T00:29:34.741Z,89.96
2019-03-23T00:30:34.735Z,89.68
2019-03-23T00:31:34.721Z,90.44
2019-03-23T00:32:34.717Z,90.34
2019-03-23T00:33:34.706Z,90.44
2019-03-23T00:34:34.695Z,90.34
2019-03-23T00:35:34.686Z,90.15
2019-03-23T00:36:43.748Z,90.25
2019-03-23T00:37:34.669Z,90.44
2019-03-23T00:38:34.674Z,90.63
2019-03-23T00:39:34.857Z,89.77
2019-03-23T00:40:34.397Z,89.68
2019-03-23T00:41:34.676Z,89.87
2019-03-23T00:42:34.627Z,89.49
2019-03-23T00:43:34.617Z,89.49
2019-03-23T00:44:34.612Z,89.58
2019-03-23T00:45:34.605Z,89.96
2019-03-23T00:46:34.593Z,89.96
2019-03-23T00:47:34.585Z,90.15
2019-03-23T00:48:34.576Z,90.15
2019-03-23T00:49:34.569Z,90.34
2019-03-23T00:50:34.559Z,90.72
2019-03-23T00:51:34.550Z,90.72
2019-03-23T00:52:34.545Z,90.44
2019-03-23T00:53:34.535Z,90.34
2019-03-23T00:54:34.524Z,90.15
2019-03-23T00:55:34.514Z,90.3
2019-03-23T00:56:34.510Z,90.44
2019-03-23T00:57:34.499Z,90.53
2019-03-23T00:58:34.493Z,90.77
2019-03-23T00:59:34.484Z,91.1
2019-03-23T01:00:34.471Z,90.86
2019-03-23T01:01:34.465Z,91
2019-03-23T01:02:34.464Z,91.34
2019-03-23T01:03:34.454Z,91.15
2019-03-23T01:04:34.444Z,91.34
2019-03-23T01:05:34.431Z,91.72
2019-03-23T01:06:34.422Z,91.86
2019-03-23T01:07:34.421Z,91.15
2019-03-23T01:08:34.406Z,91.15
2019-03-23T01:09:34.401Z,91.24
2019-03-23T01:10:34.536Z,90.86
2019-03-23T01:11:34.381Z,91.15
2019-03-23T01:12:34.370Z,90.86
2019-03-23T01:13:34.377Z,91.15
2019-03-23T01:14:34.357Z,91.24
2019-03-23T01:15:34.345Z,91.53
2019-03-23T01:16:34.332Z,91.53
2019-03-23T01:17:34.327Z,91.53
2019-03-23T01:18:34.316Z,91.43
2019-03-23T01:19:34.309Z,92
2019-03-23T01:20:34.300Z,92
2019-03-23T01:21:34.306Z,91.91
2019-03-23T01:22:34.283Z,92.19
2019-03-23T01:23:34.280Z,91.81
2019-03-23T01:24:34.274Z,91.72
2019-03-23T01:25:34.265Z,91.62
2019-03-23T01:26:34.252Z,92.29
2019-03-23T01:27:34.245Z,92.1
2019-03-23T01:28:34.232Z,92.1
2019-03-23T01:29:34.222Z,92.1
2019-03-23T01:30:34.237Z,92.19
2019-03-23T01:31:34.207Z,91.91
2019-03-23T01:32:34.198Z,92
2019-03-23T01:33:34.190Z,92.19
2019-03-23T01:34:34.180Z,92.66
2019-03-23T01:35:34.169Z,92.76
2019-03-23T01:36:34.163Z,92.66
2019-03-23T01:37:34.151Z,92.29
2019-03-23T01:38:34.144Z,92.47
2019-03-23T01:39:34.151Z,92.76
2019-03-23T01:40:36.310Z,92.47
2019-03-23T01:41:34.119Z,92.76
2019-03-23T01:42:34.111Z,92.38
2019-03-23T01:43:34.100Z,92.85
2019-03-23T01:44:34.093Z,92.29
2019-03-23T01:45:34.084Z,91.72
2019-03-23T01:46:34.077Z,92
2019-03-23T01:47:34.068Z,92.57
2019-03-23T01:48:34.058Z,92.57
2019-03-23T01:49:34.049Z,92.76
2019-03-23T01:50:34.037Z,92.94
2019-03-23T01:51:34.032Z,92.76
2019-03-23T01:52:34.020Z,92.94
2019-03-23T01:53:34.013Z,92.94
2019-03-23T01:54:34.004Z,93.04
2019-03-23T01:55:34.047Z,93.13
2019-03-23T01:56:33.985Z,93.13
2019-03-23T01:57:34.029Z,92.94
2019-03-23T01:58:33.975Z,93.13
2019-03-23T01:59:33.968Z,93.23
2019-03-23T02:00:33.955Z,93.51
2019-03-23T02:01:33.952Z,92.94
2019-03-23T02:02:33.937Z,92.76
2019-03-23T02:03:33.927Z,93.13
2019-03-23T02:04:33.922Z,92.94
2019-03-23T02:05:33.911Z,92.94
2019-03-23T02:06:33.901Z,93.32
2019-03-23T02:07:33.895Z,93.51
2019-03-23T02:08:33.885Z,93.61
2019-03-23T02:09:33.877Z,93.8
2019-03-23T02:10:33.865Z,93.89
2019-03-23T02:11:33.861Z,93.8
2019-03-23T02:12:33.852Z,94.08
2019-03-23T02:13:33.841Z,94.13
2019-03-23T02:14:33.836Z,94.18
2019-03-23T02:15:33.824Z,93.94
2019-03-23T02:16:33.816Z,94.13
2019-03-23T02:17:33.809Z,94.46
2019-03-23T02:18:33.796Z,94.23
2019-03-23T02:19:33.786Z,94.51
2019-03-23T02:20:33.779Z,94.51
2019-03-23T02:21:33.769Z,93.94
2019-03-23T02:22:33.769Z,94.13
2019-03-23T02:23:33.755Z,94.23
2019-03-23T02:24:33.745Z,94.6
2019-03-23T02:25:33.734Z,94.6
2019-03-23T02:26:33.474Z,94.6
2019-03-23T02:27:33.718Z,94.7
2019-03-23T02:28:33.812Z,95.26
2019-03-23T02:29:33.703Z,94.98
2019-03-23T02:30:33.758Z,95.26
2019-03-23T02:31:33.727Z,95.17
2019-03-23T02:32:33.676Z,95.45
2019-03-23T02:33:33.673Z,94.98
2019-03-23T02:34:33.665Z,96.12
2019-03-23T02:35:33.651Z,95.45
2019-03-23T02:36:33.649Z,95.45
2019-03-23T02:37:33.632Z,95.64
2019-03-23T02:38:33.408Z,95.07
2019-03-23T02:39:33.374Z,95.55
2019-03-23T02:40:33.603Z,95.26
2019-03-23T02:41:33.602Z,95.45
2019-03-23T02:42:33.589Z,95.55
2019-03-23T02:43:33.593Z,95.93
2019-03-23T02:44:33.573Z,95.36
2019-03-23T02:45:33.565Z,95.45
2019-03-23T02:46:33.555Z,95.26
2019-03-23T02:47:33.541Z,95.55
2019-03-23T02:48:33.541Z,95.36
2019-03-23T02:49:33.539Z,95.36
2019-03-23T02:50:33.528Z,95.55
2019-03-23T02:51:33.587Z,95.45
2019-03-23T02:52:33.501Z,95.64
2019-03-23T02:53:33.492Z,95.83
2019-03-23T02:54:33.489Z,95.64
2019-03-23T02:55:33.477Z,95.55
2019-03-23T02:56:33.473Z,95.36
2019-03-23T02:57:33.459Z,95.93
2019-03-23T02:58:33.448Z,95.55
2019-03-23T02:59:33.446Z,95.26
2019-03-23T03:00:33.432Z,95.45
2019-03-23T03:01:33.419Z,95.64
2019-03-23T03:02:33.416Z,95.64
2019-03-23T03:03:33.403Z,95.55
2019-03-23T03:04:33.398Z,95.55
2019-03-23T03:05:33.387Z,95.26
2019-03-23T03:06:33.375Z,95.64
2019-03-23T03:07:44.288Z,95.83
2019-03-23T03:08:33.394Z,96.02
2019-03-23T03:09:33.351Z,96.12
2019-03-23T03:10:33.339Z,96.78
2019-03-23T03:11:33.333Z,96.78
2019-03-23T03:12:33.321Z,97.16
2019-03-23T03:13:33.316Z,96.97
2019-03-23T03:14:33.304Z,96.59
2019-03-23T03:15:33.368Z,96.5
2019-03-23T03:16:33.317Z,96.69
2019-03-23T03:17:33.280Z,96.78
2019-03-23T03:18:33.277Z,96.5
2019-03-23T03:19:33.277Z,96.78
2019-03-23T03:20:33.250Z,96.31
2019-03-23T03:21:33.242Z,96.5
2019-03-23T03:22:33.232Z,96.97
2019-03-23T03:23:33.224Z,96.88
2019-03-23T03:24:33.216Z,97.06
2019-03-23T03:25:33.208Z,97.44
2019-03-23T03:26:33.197Z,96.78
2019-03-23T03:27:32.946Z,97.44
2019-03-23T03:28:32.928Z,97.25
2019-03-23T03:29:32.918Z,97.53
2019-03-23T03:30:33.167Z,96.97
2019-03-23T03:31:33.163Z,96.97
2019-03-23T03:32:33.165Z,96.59
2019-03-23T03:33:33.154Z,96.69
2019-03-23T03:34:33.146Z,96.88
2019-03-23T03:35:33.118Z,97.06
2019-03-23T03:36:33.132Z,96.97
2019-03-23T03:37:33.101Z,96.88
2019-03-23T03:38:33.089Z,96.88
2019-03-23T03:39:33.086Z,96.88
2019-03-23T03:40:33.073Z,97.06
2019-03-23T03:41:33.072Z,97.44
2019-03-23T03:42:33.060Z,97.25
2019-03-23T03:43:33.047Z,97.25
2019-03-23T03:44:33.036Z,97.63
2019-03-23T03:45:33.102Z,97.53
2019-03-23T03:46:33.175Z,97.34
2019-03-23T03:47:33.024Z,97.82
2019-03-23T03:48:33.008Z,97.44
2019-03-23T03:49:32.996Z,97.44
2019-03-23T03:50:32.981Z,97.63
2019-03-23T03:51:32.974Z,97.25
2019-03-23T03:52:32.969Z,97.44
2019-03-23T03:53:32.971Z,97.63
2019-03-23T03:54:32.952Z,97.44
2019-03-23T03:55:32.945Z,97.82
2019-03-23T03:56:32.957Z,97.82
2019-03-23T03:57:32.932Z,97.34
2019-03-23T03:58:32.912Z,97.34
2019-03-23T03:59:32.904Z,97.72
2019-03-23T04:00:32.897Z,97.34
2019-03-23T04:01:32.889Z,96.97
2019-03-23T04:02:32.879Z,97.82
2019-03-23T04:03:32.872Z,97.53
2019-03-23T04:04:32.865Z,97.44
2019-03-23T04:05:32.859Z,97.34
2019-03-23T04:06:32.842Z,97.63
2019-03-23T04:07:32.832Z,97.34
2019-03-23T04:08:32.825Z,97.63
2019-03-23T04:09:32.824Z,97.44
2019-03-23T04:10:32.812Z,98.1
2019-03-23T04:11:32.798Z,98.1
2019-03-23T04:12:32.792Z,97.34
2019-03-23T04:13:32.782Z,97.82
2019-03-23T04:14:32.769Z,97.63
2019-03-23T04:15:32.760Z,97.34
2019-03-23T04:16:32.751Z,98.1
2019-03-23T04:17:32.742Z,98.2
2019-03-23T04:18:32.738Z,98.1
2019-03-23T04:19:32.722Z,98.39
2019-03-23T04:20:32.729Z,98.48
2019-03-23T04:21:32.707Z,97.44
2019-03-23T04:22:32.708Z,97.25
2019-03-23T04:23:32.725Z,97.72
2019-03-23T04:24:32.681Z,97.34
2019-03-23T04:25:32.668Z,97.01
2019-03-23T04:26:32.664Z,97.58
2019-03-23T04:27:32.657Z,98.14
2019-03-23T04:28:32.655Z,98.62
2019-03-23T04:29:32.661Z,98.43
2019-03-23T04:30:32.640Z,98.43
2019-03-23T04:31:32.629Z,98.52
2019-03-23T04:32:32.610Z,97.96
2019-03-23T04:33:32.597Z,98.81
2019-03-23T04:34:32.594Z,98.24
2019-03-23T04:35:32.587Z,98.62
2019-03-23T04:36:32.574Z,98.43
2019-03-23T04:37:32.572Z,98.71
2019-03-23T04:38:32.555Z,98.81
2019-03-23T04:39:32.546Z,98.14
2019-03-23T04:40:32.534Z,98.24
2019-03-23T04:41:32.531Z,98.24
2019-03-23T04:42:32.516Z,98.29
2019-03-23T04:43:32.506Z,98.62
2019-03-23T04:44:32.498Z,97.77
2019-03-23T04:45:32.490Z,98.05
2019-03-23T04:46:32.484Z,97.58
2019-03-23T04:47:32.471Z,98.33
2019-03-23T04:48:32.466Z,98.43
2019-03-23T04:49:32.452Z,98.43
2019-03-23T04:50:32.444Z,97.96
2019-03-23T04:51:32.433Z,98.33
2019-03-23T04:52:32.426Z,98.05
2019-03-23T04:53:32.418Z,98.62
2019-03-23T04:54:32.409Z,98.24
2019-03-23T04:55:32.396Z,98.81
2019-03-23T04:56:32.388Z,98.81
2019-03-23T04:57:32.380Z,98.71
2019-03-23T04:58:32.375Z,99.47
2019-03-23T04:59:32.365Z,99.28
2019-03-23T05:00:32.351Z,99.28
2019-03-23T05:01:32.342Z,99.19
2019-03-23T05:02:32.334Z,99.28
2019-03-23T05:03:32.325Z,99.19
2019-03-23T05:04:32.422Z,99.28
2019-03-23T05:05:32.311Z,99.38
2019-03-23T05:06:32.295Z,98.62
2019-03-23T05:07:32.287Z,98.62
2019-03-23T05:08:36.114Z,98.62
2019-03-23T05:09:32.268Z,98.9
2019-03-23T05:10:32.261Z,98.71
2019-03-23T05:11:32.259Z,98.62
2019-03-23T05:12:32.248Z,98.71
2019-03-23T05:13:32.233Z,99
2019-03-23T05:14:32.229Z,99.19
2019-03-23T05:15:32.215Z,99.38
2019-03-23T05:16:32.209Z,99.57
2019-03-23T05:17:32.222Z,99.47
2019-03-23T05:18:32.189Z,98.62
2019-03-23T05:19:32.187Z,99.38
2019-03-23T05:20:32.172Z,99.38
2019-03-23T05:21:32.162Z,99.19
2019-03-23T05:22:32.152Z,99.09
2019-03-23T05:23:32.142Z,99.09
2019-03-23T05:24:32.133Z,99.09
2019-03-23T05:25:31.873Z,99.09
2019-03-23T05:26:32.114Z,99
2019-03-23T05:27:31.855Z,98.81
2019-03-23T05:28:32.097Z,99
2019-03-23T05:29:32.088Z,99.28
2019-03-23T05:30:32.085Z,99.28
2019-03-23T05:31:32.076Z,99.38
2019-03-23T05:32:32.062Z,99
2019-03-23T05:33:32.052Z,99
2019-03-23T05:34:32.044Z,99.95
2019-03-23T05:35:32.038Z,99.57
2019-03-23T05:36:32.024Z,99.47
2019-03-23T05:37:32.024Z,99.99
2019-03-23T05:38:32.006Z,99.99
2019-03-23T05:39:32.002Z,99.66
2019-03-23T05:40:31.987Z,99.47
2019-03-23T05:41:33.382Z,99.85
2019-03-23T05:42:31.969Z,99.66
2019-03-23T05:43:31.962Z,99.38
2019-03-23T05:44:31.952Z,99.95
2019-03-23T05:45:31.950Z,99.99
2019-03-23T05:46:31.935Z,99.66
2019-03-23T05:47:31.926Z,99.76
2019-03-23T05:48:31.930Z,99.99
2019-03-23T05:49:31.657Z,99.99
2019-03-23T05:50:31.900Z,99.71
2019-03-23T05:51:33.147Z,99.33
2019-03-23T05:52:31.880Z,99.33
2019-03-23T05:53:31.875Z,99
2019-03-23T05:54:31.859Z,98.62
2019-03-23T05:55:31.850Z,98.81
2019-03-23T05:56:31.842Z,99.57
2019-03-23T05:57:31.833Z,99.28
2019-03-23T05:58:31.580Z,99.38
2019-03-23T05:59:31.814Z,99.76
2019-03-23T06:00:31.809Z,99.57
2019-03-23T06:01:31.797Z,99.99
2019-03-23T06:02:31.788Z,99.99
2019-03-23T06:03:31.777Z,99.99
2019-03-23T06:04:31.767Z,99.99
2019-03-23T06:05:31.760Z,99.99
2019-03-23T06:06:31.749Z,99.99
2019-03-23T06:07:31.745Z,99.71
2019-03-23T06:08:31.730Z,99.99
2019-03-23T06:09:31.721Z,99.71
2019-03-23T06:10:31.715Z,99.8
2019-03-23T06:11:31.703Z,99.33
2019-03-23T06:12:31.695Z,99.33
2019-03-23T06:13:31.686Z,99.33
2019-03-23T06:14:31.680Z,99.43
2019-03-23T06:15:31.666Z,99.52
2019-03-23T06:16:31.659Z,98.86
2019-03-23T06:17:31.650Z,98.91
2019-03-23T06:18:31.642Z,98.53
2019-03-23T06:19:31.634Z,98.34
2019-03-23T06:20:31.625Z,98.15
2019-03-23T06:21:31.614Z,97.77
2019-03-23T06:22:31.758Z,97.68
2019-03-23T06:23:31.593Z,97.49
2019-03-23T06:24:31.591Z,97.2
2019-03-23T06:25:31.660Z,96.92
2019-03-23T06:26:31.566Z,96.64
2019-03-23T06:27:31.559Z,96.83
2019-03-23T06:28:31.552Z,96.07
2019-03-23T06:29:31.540Z,95.88
2019-03-23T06:30:31.530Z,96.54
2019-03-23T06:31:31.524Z,95.88
2019-03-23T06:32:31.513Z,95.88
2019-03-23T06:33:31.503Z,95.5
2019-03-23T06:34:31.496Z,95.69
2019-03-23T06:35:31.499Z,96.5
2019-03-23T06:36:31.479Z,95.78
2019-03-23T06:37:31.465Z,95.83
2019-03-23T06:38:31.459Z,94.98
2019-03-23T06:39:31.448Z,94.6
2019-03-23T06:40:31.455Z,94.32
2019-03-23T06:41:31.428Z,94.6
2019-03-23T06:42:31.418Z,93.65
2019-03-23T06:43:31.412Z,94.23
2019-03-23T06:44:31.401Z,93.56
2019-03-23T06:45:31.394Z,93.94
2019-03-23T06:46:31.385Z,93.37
2019-03-23T06:47:31.381Z,93.37
2019-03-23T06:48:31.365Z,92.99
2019-03-23T06:49:31.358Z,92.8
2019-03-23T06:50:31.349Z,92.28
2019-03-23T06:51:31.345Z,92.38
2019-03-23T06:52:31.330Z,91.9
2019-03-23T06:53:31.321Z,92.47
2019-03-23T06:54:31.317Z,91.52
2019-03-23T06:55:31.314Z,91.81
2019-03-23T06:56:31.295Z,91.81
2019-03-23T06:57:31.284Z,91.71
2019-03-23T06:58:31.280Z,91.71
2019-03-23T06:59:31.265Z,92
2019-03-23T07:00:31.259Z,91.14
2019-03-23T07:01:31.247Z,91.24
2019-03-23T07:02:31.239Z,90.77
2019-03-23T07:03:31.230Z,90.39
2019-03-23T07:04:31.232Z,90.67
2019-03-23T07:05:31.227Z,90.24
2019-03-23T07:06:31.207Z,89.86
2019-03-23T07:07:31.198Z,89.77
2019-03-23T07:08:34.682Z,89.29
2019-03-23T07:09:31.185Z,88.63
2019-03-23T07:10:31.170Z,89.01
2019-03-23T07:11:31.165Z,88.73
2019-03-23T07:12:31.155Z,88.54
2019-03-23T07:13:31.142Z,88.54
2019-03-23T07:14:31.131Z,87.97
2019-03-23T07:15:31.124Z,87.97
2019-03-23T07:16:31.159Z,87.68
2019-03-23T07:17:31.105Z,87.87
2019-03-23T07:18:31.095Z,87.4
2019-03-23T07:19:31.088Z,87.12
2019-03-23T07:20:31.080Z,87.59
2019-03-23T07:21:31.073Z,87.21
2019-03-23T07:22:31.061Z,87.4
2019-03-23T07:23:31.052Z,87.12
2019-03-23T07:24:31.054Z,87.12
2019-03-23T07:25:31.034Z,87.02
2019-03-23T07:26:31.024Z,87.59
2019-03-23T07:27:31.016Z,87.4
2019-03-23T07:28:31.008Z,87.4
2019-03-23T07:29:31.005Z,87.35
2019-03-23T07:30:30.989Z,87.54
2019-03-23T07:31:30.981Z,87.73
2019-03-23T07:32:30.973Z,87.92
2019-03-23T07:33:30.963Z,87.73
2019-03-23T07:34:30.955Z,88.29
2019-03-23T07:35:30.947Z,88.2
2019-03-23T07:36:30.938Z,88.1
2019-03-23T07:37:30.930Z,87.35
2019-03-23T07:38:30.917Z,87.63
2019-03-23T07:39:32.917Z,87.25
2019-03-23T07:40:30.928Z,87.16
2019-03-23T07:41:30.904Z,87.54
2019-03-23T07:42:30.883Z,86.97
2019-03-23T07:43:30.873Z,87.06
2019-03-23T07:44:30.865Z,86.54
2019-03-23T07:45:30.607Z,86.16
2019-03-23T07:46:30.846Z,86.16
2019-03-23T07:47:30.838Z,86.25
2019-03-23T07:48:31.038Z,86.25
2019-03-23T07:49:30.824Z,85.97
2019-03-23T07:50:30.857Z,86.25
2019-03-23T07:51:30.806Z,85.49
2019-03-23T07:52:30.852Z,85.78
2019-03-23T07:53:30.786Z,85.4
2019-03-23T07:54:30.775Z,85.02
2019-03-23T07:55:30.783Z,85.21
2019-03-23T07:56:30.758Z,85.21
2019-03-23T07:57:30.752Z,85.3
2019-03-23T07:58:30.744Z,84.74
2019-03-23T07:59:30.740Z,85.53
2019-03-23T08:00:30.731Z,85.35
2019-03-23T08:01:30.719Z,84.78
2019-03-23T08:02:30.710Z,84.49
2019-03-23T08:03:30.698Z,84.21
2019-03-23T08:04:30.690Z,84.4
2019-03-23T08:05:30.679Z,84.11
2019-03-23T08:06:30.677Z,83.83
2019-03-23T08:07:30.675Z,84.01
2019-03-23T08:08:30.654Z,83.64
2019-03-23T08:09:39.959Z,83.73
2019-03-23T08:10:30.384Z,83.83
2019-03-23T08:11:30.684Z,83.39
2019-03-23T08:12:30.620Z,83.11
2019-03-23T08:13:30.784Z,82.64
2019-03-23T08:14:30.604Z,82.07
2019-03-23T08:15:30.601Z,81.78
2019-03-23T08:16:30.587Z,81.49
2019-03-23T08:17:30.579Z,80.83
2019-03-23T08:18:30.573Z,81.02
2019-03-23T08:19:30.562Z,80.35
2019-03-23T08:20:30.550Z,80.26
2019-03-23T08:21:30.546Z,80.16
2019-03-23T08:22:30.535Z,79.31
2019-03-23T08:23:30.526Z,79.88
2019-03-23T08:24:30.264Z,79.73
2019-03-23T08:25:30.507Z,80.11
2019-03-23T08:26:30.498Z,79.63
2019-03-23T08:27:30.490Z,78.59
2019-03-23T08:28:32.365Z,78.69
2019-03-23T08:29:30.473Z,78.5
2019-03-23T08:30:30.463Z,77.73
2019-03-23T08:31:30.462Z,76.88
2019-03-23T08:32:30.448Z,76.03
2019-03-23T08:33:30.443Z,74.41
2019-03-23T08:34:30.433Z,72.89
2019-03-23T08:35:30.428Z,70.99
2019-03-23T08:36:30.411Z,70.51
2019-03-23T08:37:30.406Z,69.75
2019-03-23T08:38:30.398Z,68.99
2019-03-23T08:39:30.389Z,68.84
2019-03-23T08:40:30.385Z,68.46
2019-03-23T08:41:30.375Z,68.36
2019-03-23T08:42:31.362Z,67.41
2019-03-23T08:43:30.355Z,66.46
2019-03-23T08:44:31.607Z,66.36
2019-03-23T08:45:30.340Z,66.27
2019-03-23T08:46:30.332Z,66.55
2019-03-23T08:47:30.322Z,66.36
2019-03-23T08:48:30.311Z,67.03
2019-03-23T08:49:31.120Z,67.13
2019-03-23T08:50:30.296Z,67.32
2019-03-23T08:51:30.284Z,67.88
2019-03-23T08:52:31.435Z,68.55
2019-03-23T08:53:30.266Z,68.77
2019-03-23T08:54:30.261Z,69.35
2019-03-23T08:55:30.259Z,68.96
2019-03-23T08:56:30.242Z,68.96
2019-03-23T08:57:30.236Z,69.15
2019-03-23T08:58:30.226Z,68.4
2019-03-23T08:59:30.216Z,68.4
2019-03-23T09:00:30.207Z,67.25
2019-03-23T09:01:30.199Z,66.39
2019-03-23T09:02:30.194Z,65.64
2019-03-23T09:03:30.183Z,65.64
2019-03-23T09:04:30.196Z,65.67
2019-03-23T09:05:30.170Z,65.16
2019-03-23T09:06:30.171Z,64.31
2019-03-23T09:07:30.148Z,64.31
2019-03-23T09:08:30.143Z,64.31
2019-03-23T09:09:30.132Z,64.34
2019-03-23T09:10:30.125Z,64.24
2019-03-23T09:11:30.115Z,64.34
2019-03-23T09:12:30.106Z,64.34
2019-03-23T09:13:39.970Z,64.15
2019-03-23T09:14:30.110Z,64.24
2019-03-23T09:15:30.086Z,63.86
2019-03-23T09:16:30.074Z,63.39
2019-03-23T09:17:30.065Z,62.81
2019-03-23T09:18:30.061Z,62.72
2019-03-23T09:19:30.048Z,62.43
2019-03-23T09:20:31.968Z,62.34
2019-03-23T09:21:30.031Z,62.37
2019-03-23T09:22:30.025Z,62.46
2019-03-23T09:23:30.015Z,62.62
2019-03-23T09:24:30.006Z,62.56
2019-03-23T09:25:29.997Z,62.75
2019-03-23T09:26:29.998Z,61.9
2019-03-23T09:27:29.985Z,61.32
2019-03-23T09:28:29.974Z,61.42
2019-03-23T09:29:29.969Z,61.42
2019-03-23T09:30:29.968Z,60.66
2019-03-23T09:31:29.946Z,60.75
2019-03-23T09:32:29.938Z,60.56
2019-03-23T09:33:29.934Z,60.02
2019-03-23T09:34:29.971Z,60.21
2019-03-23T09:35:29.913Z,60.59
2019-03-23T09:36:29.910Z,60.21
2019-03-23T09:37:29.897Z,59.54
2019-03-23T09:38:29.889Z,59.64
2019-03-23T09:39:29.882Z,60.3
2019-03-23T09:40:29.871Z,60.11
2019-03-23T09:41:29.611Z,60.3
2019-03-23T09:42:29.860Z,60.4
2019-03-23T09:43:29.846Z,60.49
2019-03-23T09:44:29.839Z,60.3
2019-03-23T09:45:29.834Z,59.92
2019-03-23T09:46:29.826Z,59.35
2019-03-23T09:47:29.820Z,59.48
2019-03-23T09:48:29.814Z,59.19
2019-03-23T09:49:29.798Z,59.67
2019-03-23T09:50:29.789Z,59.28
2019-03-23T09:51:31.786Z,57.95
2019-03-23T09:52:29.774Z,58.14
2019-03-23T09:53:29.764Z,58.43
2019-03-23T09:54:29.754Z,59.76
2019-03-23T09:55:31.123Z,60.14
2019-03-23T09:56:29.740Z,60.62
2019-03-23T09:57:29.733Z,60.24
2019-03-23T09:58:29.722Z,60.43
2019-03-23T09:59:29.714Z,59.95
2019-03-23T10:00:29.710Z,60.43
2019-03-23T10:01:29.711Z,60.05
2019-03-23T10:02:29.696Z,60.43
2019-03-23T10:03:29.694Z,59.95
2019-03-23T10:04:29.673Z,59.86
2019-03-23T10:05:29.665Z,60.17
2019-03-23T10:06:29.657Z,60.36
2019-03-23T10:07:29.651Z,60.36
2019-03-23T10:08:29.641Z,59.12
2019-03-23T10:09:29.633Z,58.46
2019-03-23T10:10:29.627Z,58.84
2019-03-23T10:11:29.618Z,58.94
2019-03-23T10:12:29.367Z,57.98
2019-03-23T10:13:29.603Z,57.24
2019-03-23T10:14:29.596Z,56.93
2019-03-23T10:15:29.585Z,57.5
2019-03-23T10:16:29.578Z,57.53
2019-03-23T10:17:29.570Z,57.79
2019-03-23T10:18:29.563Z,58.01
2019-03-23T10:19:29.554Z,58.11
2019-03-23T10:20:29.542Z,56.87
2019-03-23T10:21:29.544Z,56.48
2019-03-23T10:22:29.277Z,56.29
2019-03-23T10:23:29.516Z,55.34
2019-03-23T10:24:29.511Z,56.67
2019-03-23T10:25:29.500Z,57.15
2019-03-23T10:26:29.496Z,56.96
2019-03-23T10:27:29.484Z,56.87
2019-03-23T10:28:29.479Z,56.96
2019-03-23T10:29:29.470Z,56.87
2019-03-23T10:30:29.470Z,56.87
2019-03-23T10:31:29.508Z,56.99
2019-03-23T10:32:29.450Z,56.41
2019-03-23T10:33:29.438Z,56.41
2019-03-23T10:34:29.427Z,56.6
2019-03-23T10:35:29.422Z,56.7
2019-03-23T10:36:29.411Z,56.23
2019-03-23T10:37:29.405Z,55.84
2019-03-23T10:38:29.397Z,56.32
2019-03-23T10:39:29.388Z,55.36
2019-03-23T10:40:34.930Z,55.18
2019-03-23T10:41:29.374Z,54.99
2019-03-23T10:42:29.366Z,54.6
2019-03-23T10:43:29.362Z,54.5
2019-03-23T10:44:29.350Z,54.41
2019-03-23T10:45:29.340Z,53.84
2019-03-23T10:46:29.331Z,53.65
2019-03-23T10:47:29.522Z,53.17
2019-03-23T10:48:29.318Z,53.17
2019-03-23T10:49:29.310Z,53.86
2019-03-23T10:50:29.303Z,53.39
2019-03-23T10:51:29.292Z,53.39
2019-03-23T10:52:29.284Z,53.1
2019-03-23T10:53:29.277Z,53.1
2019-03-23T10:54:29.269Z,52.62
2019-03-23T10:55:29.261Z,52.81
2019-03-23T10:56:29.251Z,52.91
2019-03-23T10:57:29.245Z,52.88
2019-03-23T10:58:29.236Z,53
2019-03-23T10:59:30.493Z,52.91
2019-03-23T11:00:29.220Z,53.77
2019-03-23T11:01:29.218Z,53.2
2019-03-23T11:02:29.206Z,52.81
2019-03-23T11:03:29.198Z,52.62
2019-03-23T11:04:29.189Z,53.1
2019-03-23T11:05:29.181Z,52.91
2019-03-23T11:06:29.177Z,52.46
2019-03-23T11:07:29.161Z,51.7
2019-03-23T11:08:29.157Z,51.89
2019-03-23T11:09:29.150Z,51.5
2019-03-23T11:10:29.145Z,51.7
2019-03-23T11:11:29.132Z,51.89
2019-03-23T11:12:28.877Z,51.6
2019-03-23T11:13:29.121Z,51.21
2019-03-23T11:14:29.111Z,51.31
2019-03-23T11:15:29.103Z,51.21
2019-03-23T11:16:29.104Z,50.74
2019-03-23T11:17:29.084Z,50.48
2019-03-23T11:18:29.079Z,49.62
2019-03-23T11:19:29.067Z,49.9
2019-03-23T11:20:29.063Z,50
2019-03-23T11:21:29.056Z,49.88
2019-03-23T11:22:29.042Z,50.26
2019-03-23T11:23:29.036Z,50.48
2019-03-23T11:24:29.028Z,50.95
2019-03-23T11:25:29.022Z,50.67
2019-03-23T11:26:30.592Z,50.09
2019-03-23T11:27:29.009Z,50.09
2019-03-23T11:28:28.998Z,49.93
2019-03-23T11:29:28.991Z,49.26
2019-03-23T11:30:28.983Z,49.07
2019-03-23T11:31:30.949Z,48.49
2019-03-23T11:32:28.968Z,47.16
2019-03-23T11:33:28.958Z,46.87
2019-03-23T11:34:28.965Z,46.2
2019-03-23T11:35:28.943Z,46.58
2019-03-23T11:36:28.939Z,46.67
2019-03-23T11:37:29.111Z,46.58
2019-03-23T11:38:28.923Z,47.53
2019-03-23T11:39:28.913Z,47.44
2019-03-23T11:40:28.903Z,47.25
2019-03-23T11:41:28.939Z,47.53
2019-03-23T11:42:28.889Z,48.02
2019-03-23T11:43:28.882Z,48.04
2019-03-23T11:44:28.873Z,47.56
2019-03-23T11:45:28.866Z,47.85
2019-03-23T11:46:28.858Z,48.13
2019-03-23T11:47:28.850Z,47.85
2019-03-23T11:48:28.843Z,47.27
2019-03-23T11:49:28.938Z,47.27
2019-03-23T11:50:28.838Z,47.37
2019-03-23T11:51:28.821Z,48.04
2019-03-23T11:52:28.814Z,48.8
2019-03-23T11:53:28.807Z,49.38
2019-03-23T11:54:28.800Z,48.33
2019-03-23T11:55:28.788Z,48.33
2019-03-23T11:56:33.068Z,48.13
2019-03-23T11:57:28.776Z,47.68
2019-03-23T11:58:28.766Z,47.78
2019-03-23T11:59:28.759Z,47.97
2019-03-23T12:00:28.504Z,48.07
2019-03-23T12:01:28.747Z,48.07
2019-03-23T12:02:28.739Z,47.58
2019-03-23T12:03:28.724Z,47.97
2019-03-23T12:04:28.719Z,46.53
2019-03-23T12:05:28.708Z,45.29
2019-03-23T12:06:28.449Z,45.96
2019-03-23T12:07:28.700Z,45.29
2019-03-23T12:08:28.686Z,45.19
2019-03-23T12:09:28.674Z,44.9
2019-03-23T12:10:28.670Z,44.62
2019-03-23T12:11:28.663Z,44.71
2019-03-23T12:12:28.661Z,45.09
2019-03-23T12:13:28.648Z,44.26
2019-03-23T12:14:28.643Z,43.87
2019-03-23T12:15:29.848Z,44.06
2019-03-23T12:16:28.624Z,44.06
2019-03-23T12:17:28.620Z,43.39
2019-03-23T12:18:28.609Z,43.01
2019-03-23T12:19:28.602Z,42.72
2019-03-23T12:20:28.897Z,43.1
2019-03-23T12:21:28.589Z,43.01
2019-03-23T12:22:28.579Z,43.3
2019-03-23T12:23:28.573Z,43.23
2019-03-23T12:24:28.566Z,43.23
2019-03-23T12:25:28.556Z,42.74
2019-03-23T12:26:28.572Z,42.55
2019-03-23T12:27:28.581Z,43.03
2019-03-23T12:28:28.565Z,43.32
2019-03-23T12:29:28.528Z,43.41
2019-03-23T12:30:28.517Z,43.51
2019-03-23T12:31:28.509Z,43.13
2019-03-23T12:32:28.505Z,43.41
2019-03-23T12:33:28.491Z,43.6
2019-03-23T12:34:28.487Z,43.32
2019-03-23T12:35:28.477Z,43.6
2019-03-23T12:36:28.471Z,42.94
2019-03-23T12:37:28.463Z,42.57
2019-03-23T12:38:28.456Z,42.1
2019-03-23T12:39:28.453Z,42.29
2019-03-23T12:40:28.440Z,41.8
2019-03-23T12:41:28.433Z,41.9
2019-03-23T12:42:28.430Z,41.42
2019-03-23T12:43:28.422Z,41.71
2019-03-23T12:44:28.194Z,41.44
2019-03-23T12:45:28.215Z,41.44
2019-03-23T12:46:28.396Z,40.29
2019-03-23T12:47:28.391Z,40.2
2019-03-23T12:48:28.410Z,40
2019-03-23T12:49:28.379Z,40.1
2019-03-23T12:50:28.367Z,39.7
2019-03-23T12:51:28.361Z,39.5
2019-03-23T12:52:28.353Z,39.22
2019-03-23T12:53:28.342Z,39.41
2019-03-23T12:54:28.338Z,40.08
2019-03-23T12:55:28.333Z,40.17
2019-03-23T12:56:28.069Z,39.7